Big Sur, CA

9:55 AM PDT on August 30, 2014 (GMT -0700)
Cachagua | Change Station
CLOSE
Current Station
Personal Weather Station
Location: Carmel Valley, CA
Elevation: 850 ft
Nearby Weather Stations

Elev 850 ft 36.40 °N, 121.65 °W | Updated 3 seconds ago

Clear
Clear
79.9 °F
Feels Like 80 °F
N
0.0
Wind Variable Wind from ENE
Gusts 2.2 mph

Today
High -- | Low -- °F
--% Chance of Precip.
Yesterday
High -- | Low -- °F
Precip. -- in
6:36 AM 7:36 PM
Waxing Crescent, 23% visible
Pressure 29.95 in
Visibility 10.0 miles
Clouds Scattered Clouds 100 ft
Heat Index 80 °F
Dew Point 51 °F
Humidity 37%
Rainfall 0.00 in
Snow Depth Not available.
UV 2 out of 12
Pollen 7.70 out of 12
Air Quality Not available.
Flu Activity Not available.
METAR KMRY 301554Z 00000KT 10SM SCT001 17/15 A2992 RMK AO2 SLP142 T01720150 $

More Conditions Fewer Conditions

Pressure 29.95 in
Visibility 10.0 miles
Clouds Scattered Clouds 100 ft
Heat Index 80 °F
Dew Point 51 °F
Humidity 37%
Rainfall 0.00 in
Snow Depth Not available.
UV 2 out of 12
Pollen 7.70 out of 12
Air Quality Not available.
Flu Activity Not available.
METAR KMRY 301554Z 00000KT 10SM SCT001 17/15 A2992 RMK AO2 SLP142 T01720150 $

More Conditions Fewer Conditions

10-Day Weather Forecast

Almanac

Astronomy

Aug. 30, 2014 Rise Set
Actual Time 6:36 AM PDT 7:36 PM PDT
Civil Twilight 6:10 AM PDT 8:03 PM PDT
Nautical Twilight 5:39 AM PDT 8:34 PM PDT
Astronomical Twilight 5:06 AM PDT 9:06 PM PDT
Moon 11:19 AM PDT 10:25 PM PDT
Length of Visible Light 13h 52m
Length of Day
13h 00m
Tomorrow will be 2m 11s shorter.
Waxing Crescent, 23% of the Moon is Illuminated
Today
Waxing Crescent
Sep 2
First Quarter
Sep 8
Full
Sep 15
Last Quarter
Sep 24
New

Today's Extremes

State Highs State Lows

Community

WunderPhotos

Upload Photos

1,748,562 photos uploaded!

WunderBlogs® & News

Nearby

Snow Depth

Station Depth Elevation
Blue Lakes 0 in 8000 ft
Summit Meadow 0 in 9122 ft
Forestdale Creek 0 in 8029 ft
Echo Peak 0 in 7800 ft
Monitor Pass 0 in 8350 ft

Earthquake Activity

City Distance Mag. Time & Date
Ridgemark, California 42 miles 3.4 4:32 PM PDT
2014-08-29
Ridgemark, California 42 miles 3.0 2:44 PM PDT
2014-08-29
Minimum magnitude displayed is 2.5.

Coastal Water Temperatures

Place Temperature
Monterey, CA 64.9 °F
Port San Luis, CA 61.0 °F

Nearby Weather Stations